sensor_id;sensor_type;location;lat;lon;timestamp;temperature;humidity
59572;DHT22;59406;45.602;11.904;2023-04-24T00:01:48;22.50;84.80
59572;DHT22;59406;45.602;11.904;2023-04-24T00:04:15;22.60;84.90
59572;DHT22;59406;45.602;11.904;2023-04-24T00:06:43;22.60;84.80
59572;DHT22;59406;45.602;11.904;2023-04-24T00:09:09;22.60;84.80
59572;DHT22;59406;45.602;11.904;2023-04-24T00:11:36;22.50;84.90
59572;DHT22;59406;45.602;11.904;2023-04-24T00:14:02;22.60;85.00
59572;DHT22;59406;45.602;11.904;2023-04-24T00:16:28;22.60;85.00
59572;DHT22;59406;45.602;11.904;2023-04-24T00:18:55;22.50;85.00
59572;DHT22;59406;45.602;11.904;2023-04-24T00:21:21;22.60;84.90
59572;DHT22;59406;45.602;11.904;2023-04-24T00:23:47;22.50;84.90
59572;DHT22;59406;45.602;11.904;2023-04-24T00:26:13;22.60;85.00
59572;DHT22;59406;45.602;11.904;2023-04-24T00:28:39;22.50;85.10
59572;DHT22;59406;45.602;11.904;2023-04-24T00:31:05;22.50;85.00
59572;DHT22;59406;45.602;11.904;2023-04-24T00:33:31;22.60;85.10
59572;DHT22;59406;45.602;11.904;2023-04-24T00:35:57;22.60;85.00
59572;DHT22;59406;45.602;11.904;2023-04-24T00:38:23;22.50;85.10
59572;DHT22;59406;45.602;11.904;2023-04-24T00:40:49;22.60;85.10
59572;DHT22;59406;45.602;11.904;2023-04-24T00:43:16;22.50;85.10
59572;DHT22;59406;45.602;11.904;2023-04-24T00:45:43;22.50;85.10
59572;DHT22;59406;45.602;11.904;2023-04-24T00:48:09;22.50;85.10
59572;DHT22;59406;45.602;11.904;2023-04-24T00:50:36;22.50;85.20
59572;DHT22;59406;45.602;11.904;2023-04-24T00:53:02;22.50;85.20
59572;DHT22;59406;45.602;11.904;2023-04-24T00:55:28;22.50;85.20
59572;DHT22;59406;45.602;11.904;2023-04-24T00:57:55;22.50;85.30
59572;DHT22;59406;45.602;11.904;2023-04-24T01:00:21;22.50;85.30
59572;DHT22;59406;45.602;11.904;2023-04-24T01:02:48;22.50;85.20
59572;DHT22;59406;45.602;11.904;2023-04-24T01:05:15;22.50;85.30
59572;DHT22;59406;45.602;11.904;2023-04-24T01:07:45;22.50;85.20
59572;DHT22;59406;45.602;11.904;2023-04-24T01:10:11;22.50;85.30
59572;DHT22;59406;45.602;11.904;2023-04-24T01:12:39;22.50;85.20
59572;DHT22;59406;45.602;11.904;2023-04-24T01:15:05;22.50;85.30
59572;DHT22;59406;45.602;11.904;2023-04-24T01:17:32;22.50;85.20
59572;DHT22;59406;45.602;11.904;2023-04-24T01:20:00;22.40;85.30
59572;DHT22;59406;45.602;11.904;2023-04-24T01:22:26;22.40;85.20
59572;DHT22;59406;45.602;11.904;2023-04-24T01:24:53;22.40;85.20
59572;DHT22;59406;45.602;11.904;2023-04-24T01:27:20;22.40;85.30
59572;DHT22;59406;45.602;11.904;2023-04-24T01:29:46;22.40;85.20
59572;DHT22;59406;45.602;11.904;2023-04-24T01:32:14;22.40;85.20
59572;DHT22;59406;45.602;11.904;2023-04-24T01:34:41;22.40;85.10
59572;DHT22;59406;45.602;11.904;2023-04-24T01:37:07;22.40;85.20
59572;DHT22;59406;45.602;11.904;2023-04-24T01:39:33;22.30;85.20
59572;DHT22;59406;45.602;11.904;2023-04-24T01:42:00;22.50;85.10
59572;DHT22;59406;45.602;11.904;2023-04-24T01:44:28;22.40;85.20
59572;DHT22;59406;45.602;11.904;2023-04-24T01:46:54;22.40;85.20
59572;DHT22;59406;45.602;11.904;2023-04-24T01:49:21;22.40;85.20
59572;DHT22;59406;45.602;11.904;2023-04-24T01:51:47;22.50;85.30
59572;DHT22;59406;45.602;11.904;2023-04-24T01:54:13;22.50;85.30
59572;DHT22;59406;45.602;11.904;2023-04-24T01:56:42;22.40;85.30
59572;DHT22;59406;45.602;11.904;2023-04-24T01:59:12;22.40;85.30
59572;DHT22;59406;45.602;11.904;2023-04-24T02:01:38;22.40;85.20
59572;DHT22;59406;45.602;11.904;2023-04-24T02:04:05;22.40;85.10
59572;DHT22;59406;45.602;11.904;2023-04-24T02:06:32;22.40;85.10
59572;DHT22;59406;45.602;11.904;2023-04-24T02:08:59;22.40;85.20
59572;DHT22;59406;45.602;11.904;2023-04-24T02:11:25;22.40;85.10
59572;DHT22;59406;45.602;11.904;2023-04-24T02:13:52;22.40;85.10
59572;DHT22;59406;45.602;11.904;2023-04-24T02:16:18;22.40;85.20
59572;DHT22;59406;45.602;11.904;2023-04-24T02:18:44;22.30;85.10
59572;DHT22;59406;45.602;11.904;2023-04-24T02:21:10;22.40;85.20
59572;DHT22;59406;45.602;11.904;2023-04-24T02:23:36;22.30;85.40
59572;DHT22;59406;45.602;11.904;2023-04-24T02:26:02;22.40;85.30
59572;DHT22;59406;45.602;11.904;2023-04-24T02:28:28;22.50;85.00
59572;DHT22;59406;45.602;11.904;2023-04-24T02:30:54;22.40;85.30
59572;DHT22;59406;45.602;11.904;2023-04-24T02:33:21;22.30;85.40
59572;DHT22;59406;45.602;11.904;2023-04-24T02:35:46;22.40;85.20
59572;DHT22;59406;45.602;11.904;2023-04-24T02:38:12;22.40;85.20
59572;DHT22;59406;45.602;11.904;2023-04-24T02:40:38;22.40;85.10
59572;DHT22;59406;45.602;11.904;2023-04-24T02:43:04;22.40;85.00
59572;DHT22;59406;45.602;11.904;2023-04-24T02:45:30;22.30;84.90
59572;DHT22;59406;45.602;11.904;2023-04-24T02:47:56;22.40;85.00
59572;DHT22;59406;45.602;11.904;2023-04-24T02:50:22;22.30;85.00
59572;DHT22;59406;45.602;11.904;2023-04-24T02:52:48;22.30;84.80
59572;DHT22;59406;45.602;11.904;2023-04-24T02:55:14;22.30;84.90
59572;DHT22;59406;45.602;11.904;2023-04-24T02:57:40;22.30;84.70
59572;DHT22;59406;45.602;11.904;2023-04-24T03:00:07;22.30;84.70
59572;DHT22;59406;45.602;11.904;2023-04-24T03:02:33;22.20;84.60
59572;DHT22;59406;45.602;11.904;2023-04-24T03:04:59;22.40;84.50
59572;DHT22;59406;45.602;11.904;2023-04-24T03:07:25;22.30;84.30
59572;DHT22;59406;45.602;11.904;2023-04-24T03:09:51;22.20;84.20
59572;DHT22;59406;45.602;11.904;2023-04-24T03:12:17;22.30;84.10
59572;DHT22;59406;45.602;11.904;2023-04-24T03:14:44;22.30;84.20
59572;DHT22;59406;45.602;11.904;2023-04-24T03:17:10;22.30;84.00
59572;DHT22;59406;45.602;11.904;2023-04-24T03:19:36;22.30;84.20
59572;DHT22;59406;45.602;11.904;2023-04-24T03:22:02;22.30;84.20
59572;DHT22;59406;45.602;11.904;2023-04-24T03:24:29;22.30;84.30
59572;DHT22;59406;45.602;11.904;2023-04-24T03:26:54;22.20;84.00
59572;DHT22;59406;45.602;11.904;2023-04-24T03:29:22;22.30;84.30
59572;DHT22;59406;45.602;11.904;2023-04-24T03:31:48;22.30;84.30
59572;DHT22;59406;45.602;11.904;2023-04-24T03:34:14;22.20;84.20
59572;DHT22;59406;45.602;11.904;2023-04-24T03:36:40;22.30;84.40
59572;DHT22;59406;45.602;11.904;2023-04-24T03:39:06;22.30;84.10
59572;DHT22;59406;45.602;11.904;2023-04-24T03:41:33;22.20;84.10
59572;DHT22;59406;45.602;11.904;2023-04-24T03:43:59;22.30;84.00
59572;DHT22;59406;45.602;11.904;2023-04-24T03:46:25;22.20;84.00
59572;DHT22;59406;45.602;11.904;2023-04-24T03:48:51;22.30;83.90
59572;DHT22;59406;45.602;11.904;2023-04-24T03:51:17;22.30;83.60
59572;DHT22;59406;45.602;11.904;2023-04-24T03:53:43;22.30;83.50
59572;DHT22;59406;45.602;11.904;2023-04-24T03:56:09;22.20;83.70
59572;DHT22;59406;45.602;11.904;2023-04-24T03:58:35;22.20;83.80
59572;DHT22;59406;45.602;11.904;2023-04-24T04:01:01;22.30;83.80
59572;DHT22;59406;45.602;11.904;2023-04-24T04:03:28;22.20;83.90
59572;DHT22;59406;45.602;11.904;2023-04-24T04:05:54;22.20;83.60
59572;DHT22;59406;45.602;11.904;2023-04-24T04:08:20;22.20;84.00
59572;DHT22;59406;45.602;11.904;2023-04-24T04:10:46;22.20;83.80
59572;DHT22;59406;45.602;11.904;2023-04-24T04:13:12;22.20;84.00
59572;DHT22;59406;45.602;11.904;2023-04-24T04:15:38;22.20;83.90
59572;DHT22;59406;45.602;11.904;2023-04-24T04:18:04;22.20;83.60
59572;DHT22;59406;45.602;11.904;2023-04-24T04:20:30;22.30;83.50
59572;DHT22;59406;45.602;11.904;2023-04-24T04:22:56;22.20;83.40
59572;DHT22;59406;45.602;11.904;2023-04-24T04:25:22;22.20;83.40
59572;DHT22;59406;45.602;11.904;2023-04-24T04:27:48;22.20;83.70
59572;DHT22;59406;45.602;11.904;2023-04-24T04:30:15;22.20;83.70
59572;DHT22;59406;45.602;11.904;2023-04-24T04:32:41;22.20;83.90
59572;DHT22;59406;45.602;11.904;2023-04-24T04:35:07;22.10;83.90
59572;DHT22;59406;45.602;11.904;2023-04-24T04:37:33;22.10;84.20
59572;DHT22;59406;45.602;11.904;2023-04-24T04:40:02;22.20;84.30
59572;DHT22;59406;45.602;11.904;2023-04-24T04:42:32;22.20;84.40
59572;DHT22;59406;45.602;11.904;2023-04-24T04:45:00;22.10;84.50
59572;DHT22;59406;45.602;11.904;2023-04-24T04:47:26;22.20;84.70
59572;DHT22;59406;45.602;11.904;2023-04-24T04:49:54;22.20;84.70
59572;DHT22;59406;45.602;11.904;2023-04-24T04:52:20;22.10;84.60
59572;DHT22;59406;45.602;11.904;2023-04-24T04:54:50;22.20;84.60
59572;DHT22;59406;45.602;11.904;2023-04-24T04:57:16;22.20;84.50
59572;DHT22;59406;45.602;11.904;2023-04-24T04:59:42;22.20;84.30
59572;DHT22;59406;45.602;11.904;2023-04-24T05:02:09;22.20;84.30
59572;DHT22;59406;45.602;11.904;2023-04-24T05:04:35;22.20;84.70
59572;DHT22;59406;45.602;11.904;2023-04-24T05:07:00;22.20;85.00
59572;DHT22;59406;45.602;11.904;2023-04-24T05:09:27;22.10;85.00
59572;DHT22;59406;45.602;11.904;2023-04-24T05:11:55;22.10;85.10
59572;DHT22;59406;45.602;11.904;2023-04-24T05:14:21;22.00;85.50
59572;DHT22;59406;45.602;11.904;2023-04-24T05:16:48;22.10;85.60
59572;DHT22;59406;45.602;11.904;2023-04-24T05:19:14;22.10;85.70
59572;DHT22;59406;45.602;11.904;2023-04-24T05:21:40;22.20;85.90
59572;DHT22;59406;45.602;11.904;2023-04-24T05:24:06;22.10;85.80
59572;DHT22;59406;45.602;11.904;2023-04-24T05:26:32;22.10;86.00
59572;DHT22;59406;45.602;11.904;2023-04-24T05:28:58;22.00;86.60
59572;DHT22;59406;45.602;11.904;2023-04-24T05:31:24;22.10;86.70
59572;DHT22;59406;45.602;11.904;2023-04-24T05:33:51;22.10;87.10
59572;DHT22;59406;45.602;11.904;2023-04-24T05:36:17;22.10;87.20
59572;DHT22;59406;45.602;11.904;2023-04-24T05:38:43;22.20;87.30
59572;DHT22;59406;45.602;11.904;2023-04-24T05:41:09;22.10;87.50
59572;DHT22;59406;45.602;11.904;2023-04-24T05:43:34;22.10;87.30
59572;DHT22;59406;45.602;11.904;2023-04-24T05:46:00;22.10;87.30
59572;DHT22;59406;45.602;11.904;2023-04-24T05:48:26;22.10;87.50
59572;DHT22;59406;45.602;11.904;2023-04-24T05:50:52;22.10;87.40
59572;DHT22;59406;45.602;11.904;2023-04-24T05:53:18;22.10;87.30
59572;DHT22;59406;45.602;11.904;2023-04-24T05:55:44;22.10;87.30
59572;DHT22;59406;45.602;11.904;2023-04-24T05:58:11;22.00;87.20
59572;DHT22;59406;45.602;11.904;2023-04-24T06:00:38;22.10;87.00
59572;DHT22;59406;45.602;11.904;2023-04-24T06:03:05;22.10;86.70
59572;DHT22;59406;45.602;11.904;2023-04-24T06:05:31;22.00;87.10
59572;DHT22;59406;45.602;11.904;2023-04-24T06:07:57;22.10;87.00
59572;DHT22;59406;45.602;11.904;2023-04-24T06:10:23;22.00;87.20
59572;DHT22;59406;45.602;11.904;2023-04-24T06:12:49;22.00;87.70
59572;DHT22;59406;45.602;11.904;2023-04-24T06:15:15;22.00;88.40
59572;DHT22;59406;45.602;11.904;2023-04-24T06:17:41;22.00;88.60
59572;DHT22;59406;45.602;11.904;2023-04-24T06:20:07;22.00;88.70
59572;DHT22;59406;45.602;11.904;2023-04-24T06:22:33;22.00;88.60
59572;DHT22;59406;45.602;11.904;2023-04-24T06:24:59;22.00;88.80
59572;DHT22;59406;45.602;11.904;2023-04-24T06:27:26;22.00;89.00
59572;DHT22;59406;45.602;11.904;2023-04-24T06:29:52;22.00;89.30
59572;DHT22;59406;45.602;11.904;2023-04-24T06:32:24;22.00;89.60
59572;DHT22;59406;45.602;11.904;2023-04-24T06:34:51;22.00;90.20
59572;DHT22;59406;45.602;11.904;2023-04-24T06:37:19;22.10;90.00
59572;DHT22;59406;45.602;11.904;2023-04-24T06:39:46;22.10;90.10
59572;DHT22;59406;45.602;11.904;2023-04-24T06:42:12;22.10;90.10
59572;DHT22;59406;45.602;11.904;2023-04-24T06:44:38;22.00;90.00
59572;DHT22;59406;45.602;11.904;2023-04-24T06:47:09;22.10;90.10
59572;DHT22;59406;45.602;11.904;2023-04-24T06:49:38;22.00;90.70
59572;DHT22;59406;45.602;11.904;2023-04-24T06:52:04;22.10;90.50
59572;DHT22;59406;45.602;11.904;2023-04-24T06:54:31;22.10;90.20
59572;DHT22;59406;45.602;11.904;2023-04-24T06:56:57;22.00;90.20
59572;DHT22;59406;45.602;11.904;2023-04-24T06:59:24;22.10;90.30
59572;DHT22;59406;45.602;11.904;2023-04-24T07:01:50;22.10;90.40
59572;DHT22;59406;45.602;11.904;2023-04-24T07:04:17;22.00;90.30
59572;DHT22;59406;45.602;11.904;2023-04-24T07:06:44;22.10;90.50
59572;DHT22;59406;45.602;11.904;2023-04-24T07:09:11;22.00;90.50
59572;DHT22;59406;45.602;11.904;2023-04-24T07:11:39;22.00;90.50
59572;DHT22;59406;45.602;11.904;2023-04-24T07:14:06;22.10;90.60
59572;DHT22;59406;45.602;11.904;2023-04-24T07:16:32;22.00;90.50
59572;DHT22;59406;45.602;11.904;2023-04-24T07:18:58;22.10;90.50
59572;DHT22;59406;45.602;11.904;2023-04-24T07:21:24;22.00;90.40
59572;DHT22;59406;45.602;11.904;2023-04-24T07:23:51;22.00;90.40
59572;DHT22;59406;45.602;11.904;2023-04-24T07:26:17;22.00;90.50
59572;DHT22;59406;45.602;11.904;2023-04-24T07:28:43;22.00;90.40
59572;DHT22;59406;45.602;11.904;2023-04-24T07:31:10;22.10;90.50
59572;DHT22;59406;45.602;11.904;2023-04-24T07:33:36;22.10;90.50
59572;DHT22;59406;45.602;11.904;2023-04-24T07:36:03;22.00;90.50
59572;DHT22;59406;45.602;11.904;2023-04-24T07:38:32;22.10;90.50
59572;DHT22;59406;45.602;11.904;2023-04-24T07:40:57;22.00;90.50
59572;DHT22;59406;45.602;11.904;2023-04-24T07:43:24;22.10;90.40
59572;DHT22;59406;45.602;11.904;2023-04-24T07:45:50;22.10;90.20
59572;DHT22;59406;45.602;11.904;2023-04-24T07:48:17;22.00;90.00
59572;DHT22;59406;45.602;11.904;2023-04-24T07:50:44;22.00;89.20
59572;DHT22;59406;45.602;11.904;2023-04-24T07:53:10;22.10;88.00
59572;DHT22;59406;45.602;11.904;2023-04-24T07:55:36;22.10;88.30
59572;DHT22;59406;45.602;11.904;2023-04-24T07:58:02;22.00;88.90
59572;DHT22;59406;45.602;11.904;2023-04-24T08:00:28;22.10;88.60
59572;DHT22;59406;45.602;11.904;2023-04-24T08:02:54;22.00;85.60
59572;DHT22;59406;45.602;11.904;2023-04-24T08:05:20;22.10;85.40
59572;DHT22;59406;45.602;11.904;2023-04-24T08:07:46;22.00;84.40
59572;DHT22;59406;45.602;11.904;2023-04-24T08:10:14;22.00;83.50
59572;DHT22;59406;45.602;11.904;2023-04-24T08:12:41;22.10;83.10
59572;DHT22;59406;45.602;11.904;2023-04-24T08:15:07;22.10;83.00
59572;DHT22;59406;45.602;11.904;2023-04-24T08:17:34;22.00;82.90
59572;DHT22;59406;45.602;11.904;2023-04-24T08:20:05;22.00;83.40
59572;DHT22;59406;45.602;11.904;2023-04-24T08:22:31;22.10;83.50
59572;DHT22;59406;45.602;11.904;2023-04-24T08:24:59;22.10;84.90
59572;DHT22;59406;45.602;11.904;2023-04-24T08:27:26;22.10;83.70
59572;DHT22;59406;45.602;11.904;2023-04-24T08:29:53;22.10;83.80
59572;DHT22;59406;45.602;11.904;2023-04-24T08:32:19;22.20;84.10
59572;DHT22;59406;45.602;11.904;2023-04-24T08:34:45;22.10;84.10
59572;DHT22;59406;45.602;11.904;2023-04-24T08:37:12;22.20;83.30
59572;DHT22;59406;45.602;11.904;2023-04-24T08:39:44;22.10;82.90
59572;DHT22;59406;45.602;11.904;2023-04-24T08:42:11;22.10;82.30
59572;DHT22;59406;45.602;11.904;2023-04-24T08:44:38;22.20;83.10
59572;DHT22;59406;45.602;11.904;2023-04-24T08:47:05;22.10;83.20
59572;DHT22;59406;45.602;11.904;2023-04-24T08:49:33;22.10;82.50
59572;DHT22;59406;45.602;11.904;2023-04-24T08:52:02;22.10;82.30
59572;DHT22;59406;45.602;11.904;2023-04-24T08:54:28;22.10;82.20
59572;DHT22;59406;45.602;11.904;2023-04-24T08:56:58;22.20;82.70
59572;DHT22;59406;45.602;11.904;2023-04-24T08:59:28;22.20;82.50
59572;DHT22;59406;45.602;11.904;2023-04-24T09:01:55;22.10;82.70
59572;DHT22;59406;45.602;11.904;2023-04-24T09:04:22;22.10;84.00
59572;DHT22;59406;45.602;11.904;2023-04-24T09:06:56;22.20;83.50
59572;DHT22;59406;45.602;11.904;2023-04-24T09:09:24;22.30;82.80
59572;DHT22;59406;45.602;11.904;2023-04-24T09:11:51;22.20;82.90
59572;DHT22;59406;45.602;11.904;2023-04-24T09:14:19;22.10;83.10
59572;DHT22;59406;45.602;11.904;2023-04-24T09:16:46;22.30;83.40
59572;DHT22;59406;45.602;11.904;2023-04-24T09:19:12;22.30;83.60
59572;DHT22;59406;45.602;11.904;2023-04-24T09:21:39;22.30;82.70
59572;DHT22;59406;45.602;11.904;2023-04-24T09:24:08;22.20;83.30
59572;DHT22;59406;45.602;11.904;2023-04-24T09:26:40;22.30;83.00
59572;DHT22;59406;45.602;11.904;2023-04-24T09:29:06;22.30;83.50
59572;DHT22;59406;45.602;11.904;2023-04-24T09:31:32;22.30;82.90
59572;DHT22;59406;45.602;11.904;2023-04-24T09:34:00;22.30;82.80
59572;DHT22;59406;45.602;11.904;2023-04-24T09:36:32;22.30;82.30
59572;DHT22;59406;45.602;11.904;2023-04-24T09:39:10;22.30;81.50
59572;DHT22;59406;45.602;11.904;2023-04-24T09:41:51;22.30;79.90
59572;DHT22;59406;45.602;11.904;2023-04-24T09:44:19;22.30;78.80
59572;DHT22;59406;45.602;11.904;2023-04-24T09:46:50;22.30;80.90
59572;DHT22;59406;45.602;11.904;2023-04-24T09:49:30;22.30;79.60
59572;DHT22;59406;45.602;11.904;2023-04-24T09:52:06;22.30;80.10
59572;DHT22;59406;45.602;11.904;2023-04-24T09:54:33;22.30;80.80
59572;DHT22;59406;45.602;11.904;2023-04-24T09:56:58;22.30;81.90
59572;DHT22;59406;45.602;11.904;2023-04-24T09:59:26;22.40;83.00
59572;DHT22;59406;45.602;11.904;2023-04-24T10:01:52;22.40;83.40
59572;DHT22;59406;45.602;11.904;2023-04-24T10:04:19;22.30;82.60
59572;DHT22;59406;45.602;11.904;2023-04-24T10:06:47;22.40;81.50
59572;DHT22;59406;45.602;11.904;2023-04-24T10:09:15;22.30;81.40
59572;DHT22;59406;45.602;11.904;2023-04-24T10:11:43;22.40;81.10
59572;DHT22;59406;45.602;11.904;2023-04-24T10:14:15;22.30;80.90
59572;DHT22;59406;45.602;11.904;2023-04-24T10:16:42;22.30;80.30
59572;DHT22;59406;45.602;11.904;2023-04-24T10:19:10;22.30;81.10
59572;DHT22;59406;45.602;11.904;2023-04-24T10:21:37;22.40;82.10
59572;DHT22;59406;45.602;11.904;2023-04-24T10:24:08;22.40;82.20
59572;DHT22;59406;45.602;11.904;2023-04-24T10:26:35;22.40;82.20
59572;DHT22;59406;45.602;11.904;2023-04-24T10:29:01;22.40;81.70
59572;DHT22;59406;45.602;11.904;2023-04-24T10:31:31;22.40;81.90
59572;DHT22;59406;45.602;11.904;2023-04-24T10:34:00;22.50;81.80
59572;DHT22;59406;45.602;11.904;2023-04-24T10:36:28;22.40;81.50
59572;DHT22;59406;45.602;11.904;2023-04-24T10:38:56;22.40;81.40
59572;DHT22;59406;45.602;11.904;2023-04-24T10:41:25;22.50;81.10
59572;DHT22;59406;45.602;11.904;2023-04-24T10:44:08;22.40;80.60
59572;DHT22;59406;45.602;11.904;2023-04-24T10:46:36;22.50;80.50
59572;DHT22;59406;45.602;11.904;2023-04-24T10:49:06;22.40;81.30
59572;DHT22;59406;45.602;11.904;2023-04-24T10:51:50;22.50;81.10
59572;DHT22;59406;45.602;11.904;2023-04-24T10:54:27;22.40;81.30
59572;DHT22;59406;45.602;11.904;2023-04-24T10:59:38;22.40;80.40
59572;DHT22;59406;45.602;11.904;2023-04-24T11:02:07;22.50;80.40
59572;DHT22;59406;45.602;11.904;2023-04-24T11:04:34;22.40;80.20
59572;DHT22;59406;45.602;11.904;2023-04-24T11:07:02;22.40;80.70
59572;DHT22;59406;45.602;11.904;2023-04-24T11:09:31;22.50;80.10
59572;DHT22;59406;45.602;11.904;2023-04-24T11:12:10;22.40;79.50
59572;DHT22;59406;45.602;11.904;2023-04-24T11:17:35;22.40;79.10
59572;DHT22;59406;45.602;11.904;2023-04-24T11:22:33;22.50;80.30
59572;DHT22;59406;45.602;11.904;2023-04-24T11:25:01;22.50;80.90
59572;DHT22;59406;45.602;11.904;2023-04-24T11:27:39;22.50;81.30
59572;DHT22;59406;45.602;11.904;2023-04-24T11:30:06;22.50;81.40
59572;DHT22;59406;45.602;11.904;2023-04-24T11:32:37;22.50;80.50
59572;DHT22;59406;45.602;11.904;2023-04-24T11:35:22;22.50;80.60
59572;DHT22;59406;45.602;11.904;2023-04-24T11:37:53;22.50;80.70
59572;DHT22;59406;45.602;11.904;2023-04-24T11:40:21;22.50;80.90
59572;DHT22;59406;45.602;11.904;2023-04-24T11:42:52;22.60;81.10
59572;DHT22;59406;45.602;11.904;2023-04-24T11:45:28;22.60;80.60
59572;DHT22;59406;45.602;11.904;2023-04-24T11:47:55;22.50;81.80
59572;DHT22;59406;45.602;11.904;2023-04-24T11:50:25;22.60;81.30
59572;DHT22;59406;45.602;11.904;2023-04-24T11:52:52;22.60;80.70
59572;DHT22;59406;45.602;11.904;2023-04-24T11:57:46;22.50;81.60
59572;DHT22;59406;45.602;11.904;2023-04-24T12:00:19;22.60;81.80
59572;DHT22;59406;45.602;11.904;2023-04-24T12:02:46;22.50;79.80
59572;DHT22;59406;45.602;11.904;2023-04-24T12:05:24;22.60;80.40
59572;DHT22;59406;45.602;11.904;2023-04-24T12:07:51;22.60;80.90
59572;DHT22;59406;45.602;11.904;2023-04-24T12:10:22;22.50;80.80
59572;DHT22;59406;45.602;11.904;2023-04-24T12:12:49;22.50;81.50
59572;DHT22;59406;45.602;11.904;2023-04-24T12:15:18;22.60;81.10
59572;DHT22;59406;45.602;11.904;2023-04-24T12:17:45;22.60;81.50
59572;DHT22;59406;45.602;11.904;2023-04-24T12:20:12;22.50;80.50
59572;DHT22;59406;45.602;11.904;2023-04-24T12:22:53;22.60;81.50
59572;DHT22;59406;45.602;11.904;2023-04-24T12:25:22;22.60;80.00
59572;DHT22;59406;45.602;11.904;2023-04-24T12:30:33;22.60;79.50
59572;DHT22;59406;45.602;11.904;2023-04-24T12:33:00;22.60;81.10
59572;DHT22;59406;45.602;11.904;2023-04-24T12:35:28;22.60;81.00
59572;DHT22;59406;45.602;11.904;2023-04-24T12:37:54;22.70;82.10
59572;DHT22;59406;45.602;11.904;2023-04-24T12:40:25;22.70;80.70
59572;DHT22;59406;45.602;11.904;2023-04-24T12:42:51;22.70;80.50
59572;DHT22;59406;45.602;11.904;2023-04-24T12:45:18;22.60;81.50
59572;DHT22;59406;45.602;11.904;2023-04-24T12:47:46;22.60;82.00
59572;DHT22;59406;45.602;11.904;2023-04-24T12:50:13;22.70;81.20
59572;DHT22;59406;45.602;11.904;2023-04-24T12:52:40;22.60;81.20
59572;DHT22;59406;45.602;11.904;2023-04-24T12:55:07;22.70;81.00
59572;DHT22;59406;45.602;11.904;2023-04-24T12:57:37;22.70;81.00
59572;DHT22;59406;45.602;11.904;2023-04-24T13:00:04;22.70;81.90
59572;DHT22;59406;45.602;11.904;2023-04-24T13:02:31;22.70;81.10
59572;DHT22;59406;45.602;11.904;2023-04-24T13:04:58;22.60;80.70
59572;DHT22;59406;45.602;11.904;2023-04-24T13:07:25;22.70;81.90
59572;DHT22;59406;45.602;11.904;2023-04-24T13:09:51;22.70;81.70
59572;DHT22;59406;45.602;11.904;2023-04-24T13:12:18;22.70;80.80
59572;DHT22;59406;45.602;11.904;2023-04-24T13:14:44;22.70;82.00
59572;DHT22;59406;45.602;11.904;2023-04-24T13:17:11;22.70;82.20
59572;DHT22;59406;45.602;11.904;2023-04-24T13:19:42;22.80;81.30
59572;DHT22;59406;45.602;11.904;2023-04-24T13:22:12;22.80;80.90
59572;DHT22;59406;45.602;11.904;2023-04-24T13:24:39;22.70;81.20
59572;DHT22;59406;45.602;11.904;2023-04-24T13:27:08;22.70;81.10
59572;DHT22;59406;45.602;11.904;2023-04-24T13:29:34;22.70;81.40
59572;DHT22;59406;45.602;11.904;2023-04-24T13:32:00;22.70;81.20
59572;DHT22;59406;45.602;11.904;2023-04-24T13:34:26;22.70;81.10
59572;DHT22;59406;45.602;11.904;2023-04-24T13:36:57;22.60;81.50
59572;DHT22;59406;45.602;11.904;2023-04-24T13:39:24;22.70;82.10
59572;DHT22;59406;45.602;11.904;2023-04-24T13:41:50;22.70;81.90
59572;DHT22;59406;45.602;11.904;2023-04-24T13:44:17;22.70;81.80
59572;DHT22;59406;45.602;11.904;2023-04-24T13:46:45;22.70;81.00
59572;DHT22;59406;45.602;11.904;2023-04-24T13:49:15;22.70;81.00
59572;DHT22;59406;45.602;11.904;2023-04-24T13:51:42;22.70;81.80
59572;DHT22;59406;45.602;11.904;2023-04-24T13:54:08;22.80;81.30
59572;DHT22;59406;45.602;11.904;2023-04-24T13:56:34;22.80;81.60
59572;DHT22;59406;45.602;11.904;2023-04-24T13:59:00;22.80;81.50
59572;DHT22;59406;45.602;11.904;2023-04-24T14:01:26;22.80;82.30
59572;DHT22;59406;45.602;11.904;2023-04-24T14:03:53;22.70;81.80
59572;DHT22;59406;45.602;11.904;2023-04-24T14:06:19;22.80;82.80
59572;DHT22;59406;45.602;11.904;2023-04-24T14:08:46;22.80;82.40
59572;DHT22;59406;45.602;11.904;2023-04-24T14:11:12;22.80;82.30
59572;DHT22;59406;45.602;11.904;2023-04-24T14:13:39;22.90;82.70
59572;DHT22;59406;45.602;11.904;2023-04-24T14:16:06;22.70;83.40
59572;DHT22;59406;45.602;11.904;2023-04-24T14:18:32;22.70;83.20
59572;DHT22;59406;45.602;11.904;2023-04-24T14:20:58;22.80;83.40
59572;DHT22;59406;45.602;11.904;2023-04-24T14:23:25;22.80;83.90
59572;DHT22;59406;45.602;11.904;2023-04-24T14:25:51;22.80;84.30
59572;DHT22;59406;45.602;11.904;2023-04-24T14:28:21;22.90;84.20
59572;DHT22;59406;45.602;11.904;2023-04-24T14:30:48;22.80;84.00
59572;DHT22;59406;45.602;11.904;2023-04-24T14:33:14;22.80;83.40
59572;DHT22;59406;45.602;11.904;2023-04-24T14:35:40;22.80;84.10
59572;DHT22;59406;45.602;11.904;2023-04-24T14:38:10;22.80;84.00
59572;DHT22;59406;45.602;11.904;2023-04-24T14:40:36;22.80;83.50
59572;DHT22;59406;45.602;11.904;2023-04-24T14:43:02;22.80;82.30
59572;DHT22;59406;45.602;11.904;2023-04-24T14:45:29;22.80;82.30
59572;DHT22;59406;45.602;11.904;2023-04-24T14:47:55;22.80;82.20
59572;DHT22;59406;45.602;11.904;2023-04-24T14:50:21;22.70;82.50
59572;DHT22;59406;45.602;11.904;2023-04-24T14:52:47;22.80;82.60
59572;DHT22;59406;45.602;11.904;2023-04-24T14:55:13;22.80;83.20
59572;DHT22;59406;45.602;11.904;2023-04-24T14:57:40;22.80;82.70
59572;DHT22;59406;45.602;11.904;2023-04-24T15:00:07;22.80;82.10
59572;DHT22;59406;45.602;11.904;2023-04-24T15:02:36;22.80;82.00
59572;DHT22;59406;45.602;11.904;2023-04-24T15:05:06;22.80;81.90
59572;DHT22;59406;45.602;11.904;2023-04-24T15:07:32;22.80;81.70
59572;DHT22;59406;45.602;11.904;2023-04-24T15:09:58;22.80;81.60
59572;DHT22;59406;45.602;11.904;2023-04-24T15:12:25;22.70;81.80
59572;DHT22;59406;45.602;11.904;2023-04-24T15:14:51;22.80;82.20
59572;DHT22;59406;45.602;11.904;2023-04-24T15:17:16;22.80;82.30
59572;DHT22;59406;45.602;11.904;2023-04-24T15:19:42;22.80;81.80
59572;DHT22;59406;45.602;11.904;2023-04-24T15:22:09;22.70;81.50
59572;DHT22;59406;45.602;11.904;2023-04-24T15:24:35;22.70;81.60
59572;DHT22;59406;45.602;11.904;2023-04-24T15:27:01;22.70;81.00
59572;DHT22;59406;45.602;11.904;2023-04-24T15:29:29;22.80;81.20